createdAt,value
2022-10-25T00:01:52.771Z,13.7
2022-10-25T00:04:52.938Z,13.7
2022-10-25T00:06:50.573Z,13.7
2022-10-25T00:08:48.204Z,13.7
2022-10-25T00:10:53.757Z,13.8
2022-10-25T00:12:51.429Z,13.9
2022-10-25T00:14:49.018Z,13.8
2022-10-25T00:16:46.657Z,13.7
2022-10-25T00:18:44.268Z,13.9
2022-10-25T00:20:41.887Z,13.8
2022-10-25T00:22:39.513Z,13.9
2022-10-25T00:24:45.051Z,13.8
2022-10-25T00:26:42.703Z,13.8
2022-10-25T00:28:40.345Z,13.8
2022-10-25T00:30:37.968Z,13.9
2022-10-25T00:32:35.612Z,13.7
2022-10-25T00:38:36.393Z,13.7
2022-10-25T00:42:31.639Z,13.9
2022-10-25T00:44:29.285Z,14
2022-10-25T00:48:24.545Z,14
2022-10-25T00:50:22.197Z,14.1
2022-10-25T00:52:27.729Z,14
2022-10-25T00:54:25.336Z,14.1
2022-10-25T00:56:22.971Z,14
2022-10-25T00:58:45.831Z,14.1
2022-10-25T01:00:43.462Z,14.2
2022-10-25T01:02:41.224Z,14.1
2022-10-25T01:04:46.644Z,14.2
2022-10-25T01:06:44.265Z,14.2
2022-10-25T01:08:41.901Z,14.1
2022-10-25T01:10:39.520Z,14.3
2022-10-25T01:12:37.151Z,14.2
2022-10-25T01:14:34.768Z,14.2
2022-10-25T01:16:32.395Z,14.3
2022-10-25T01:18:37.928Z,14.1
2022-10-25T01:20:35.580Z,14.3
2022-10-25T01:22:33.168Z,14.3
2022-10-25T01:24:30.802Z,14.3
2022-10-25T01:26:28.407Z,14.2
2022-10-25T01:30:23.666Z,14.2
2022-10-25T01:32:29.241Z,14.2
2022-10-25T01:34:26.862Z,14.2
2022-10-25T01:36:24.492Z,14.3
2022-10-25T01:38:22.116Z,14.4
2022-10-25T01:40:19.733Z,14.3
2022-10-25T01:44:14.980Z,14.3
2022-10-25T01:46:20.559Z,14.3
2022-10-25T01:48:18.165Z,14.3
2022-10-25T01:50:15.792Z,14.3
2022-10-25T01:51:18.551Z,14.3
2022-10-25T01:55:13.940Z,14.4
2022-10-25T01:57:11.427Z,14.4
2022-10-25T02:01:14.733Z,14.4
2022-10-25T02:03:12.194Z,14.4
2022-10-25T02:05:09.935Z,14.3
2022-10-25T02:07:07.457Z,14.4
2022-10-25T02:09:05.070Z,14.3
2022-10-25T02:11:02.739Z,14.4
2022-10-25T02:13:08.291Z,14.3
2022-10-25T02:15:05.911Z,14.4
2022-10-25T02:17:03.531Z,14.4
2022-10-25T02:19:01.155Z,14.5
2022-10-25T02:20:58.764Z,14.3
2022-10-25T02:22:56.381Z,14.4
2022-10-25T02:24:54.030Z,14.4
2022-10-25T02:26:59.566Z,14.4
2022-10-25T02:28:57.196Z,14.4
2022-10-25T02:30:54.859Z,14.5
2022-10-25T02:32:52.459Z,14.4
2022-10-25T02:34:50.065Z,14.5
2022-10-25T02:40:50.857Z,14.4
2022-10-25T02:44:46.101Z,14.4
2022-10-25T02:45:48.868Z,14.4
2022-10-25T02:47:46.690Z,14.4
2022-10-25T02:49:44.103Z,14.6
2022-10-25T02:51:41.844Z,14.5
2022-10-25T02:53:47.296Z,14.5
2022-10-25T02:55:44.927Z,14.5
2022-10-25T02:57:42.543Z,14.5
2022-10-25T02:59:40.141Z,14.6
2022-10-25T03:01:37.985Z,14.7
2022-10-25T03:03:35.409Z,14.6
2022-10-25T03:05:33.030Z,14.6
2022-10-25T03:07:38.562Z,14.6
2022-10-25T03:09:36.210Z,14.7
2022-10-25T03:13:31.439Z,14.7
2022-10-25T03:15:29.092Z,14.7
2022-10-25T03:17:26.707Z,14.7
2022-10-25T03:19:24.329Z,14.7
2022-10-25T03:21:29.928Z,14.6
2022-10-25T03:23:27.545Z,14.7
2022-10-25T03:25:25.129Z,14.8
2022-10-25T03:27:22.789Z,14.7
2022-10-25T03:29:20.402Z,14.8
2022-10-25T03:31:17.993Z,14.7
2022-10-25T03:33:15.627Z,14.7
2022-10-25T03:35:21.182Z,14.7
2022-10-25T03:37:18.790Z,14.7
2022-10-25T03:39:16.404Z,14.7
2022-10-25T03:40:19.175Z,14.7
2022-10-25T03:42:18.350Z,14.7
2022-10-25T03:44:15.926Z,14.6
2022-10-25T03:46:13.561Z,14.7
2022-10-25T03:48:19.092Z,14.6
2022-10-25T03:50:16.742Z,14.6
2022-10-25T03:52:14.347Z,14.6
2022-10-25T03:54:11.973Z,14.6
2022-10-25T03:56:09.594Z,14.6
2022-10-25T03:58:07.380Z,14.6
2022-10-25T04:00:04.852Z,14.7
2022-10-25T04:02:10.458Z,14.5
2022-10-25T04:04:08.005Z,14.5
2022-10-25T04:08:03.269Z,14.6
2022-10-25T04:10:00.886Z,14.7
2022-10-25T04:11:58.489Z,14.7
2022-10-25T04:13:56.141Z,14.6
2022-10-25T04:16:01.668Z,14.6
2022-10-25T04:17:59.336Z,14.6
2022-10-25T04:19:56.915Z,14.6
2022-10-25T04:21:54.549Z,14.6
2022-10-25T04:25:49.820Z,14.7
2022-10-25T04:29:53.019Z,14.5
2022-10-25T04:31:50.651Z,14.5
2022-10-25T04:36:15.222Z,14.5
2022-10-25T04:38:12.842Z,14.6
2022-10-25T04:40:10.473Z,14.7
2022-10-25T04:44:13.621Z,14.6
2022-10-25T04:46:11.216Z,14.7
2022-10-25T04:48:08.861Z,14.7
2022-10-25T04:52:04.096Z,14.5
2022-10-25T04:54:01.719Z,14.6
2022-10-25T04:56:07.279Z,14.6
2022-10-25T04:58:04.887Z,14.6
2022-10-25T05:00:02.581Z,14.7
2022-10-25T05:02:00.142Z,14.6
2022-10-25T05:03:57.724Z,14.6
2022-10-25T05:05:55.361Z,14.6
2022-10-25T05:07:52.975Z,14.6
2022-10-25T05:09:58.529Z,14.6
2022-10-25T05:11:56.172Z,14.6
2022-10-25T05:15:51.417Z,14.5
2022-10-25T05:17:49.035Z,14.6
2022-10-25T05:19:46.684Z,14.6
2022-10-25T05:21:44.333Z,14.5
2022-10-25T05:23:50.439Z,14.5
2022-10-25T05:25:48.028Z,14.5
2022-10-25T05:27:45.662Z,14.6
2022-10-25T05:28:48.422Z,14.6
2022-10-25T05:32:43.988Z,14.5
2022-10-25T05:34:41.338Z,14.5
2022-10-25T05:36:46.864Z,14.5
2022-10-25T05:38:44.493Z,14.6
2022-10-25T05:40:42.119Z,14.6
2022-10-25T05:42:39.757Z,14.5
2022-10-25T05:44:37.332Z,14.5
2022-10-25T05:48:32.570Z,14.6
2022-10-25T05:56:31.006Z,14.5
2022-10-25T05:58:28.618Z,14.5
2022-10-25T06:00:26.346Z,14.6
2022-10-25T06:02:24.075Z,14.5
2022-10-25T06:04:29.424Z,14.5
2022-10-25T06:08:24.643Z,14.4
2022-10-25T06:12:19.914Z,14.6
2022-10-25T06:14:17.534Z,14.5
2022-10-25T06:16:15.176Z,14.5
2022-10-25T06:18:20.723Z,14.5
2022-10-25T06:20:18.326Z,14.4
2022-10-25T06:23:18.756Z,14.6
2022-10-25T06:25:16.339Z,14.5
2022-10-25T06:27:13.971Z,14.5
2022-10-25T06:29:11.614Z,14.5
2022-10-25T06:31:17.170Z,14.5
2022-10-25T06:35:12.402Z,14.5
2022-10-25T06:37:10.040Z,14.4
2022-10-25T06:39:07.655Z,14.5
2022-10-25T06:41:05.272Z,14.4
2022-10-25T06:43:02.919Z,14.5
2022-10-25T06:45:08.441Z,14.5
2022-10-25T06:47:17.136Z,14.5
2022-10-25T06:49:03.715Z,14.5
2022-10-25T06:51:01.323Z,14.5
2022-10-25T06:56:54.187Z,14.4
2022-10-25T06:58:59.717Z,14.5
2022-10-25T07:00:57.388Z,14.5
2022-10-25T07:02:54.987Z,14.5
2022-10-25T07:04:52.613Z,14.5
2022-10-25T07:06:52.907Z,14.5
2022-10-25T07:08:47.861Z,14.5
2022-10-25T07:12:51.021Z,14.5
2022-10-25T07:17:49.534Z,14.5
2022-10-25T07:19:46.688Z,14.5
2022-10-25T07:21:44.306Z,14.5
2022-10-25T07:23:41.965Z,14.5
2022-10-25T07:25:47.507Z,14.5
2022-10-25T07:27:45.484Z,14.6
2022-10-25T07:29:42.737Z,14.6
2022-10-25T07:31:40.320Z,14.6
2022-10-25T07:33:37.951Z,14.5
2022-10-25T07:35:42.061Z,14.5
2022-10-25T07:37:33.202Z,14.5
2022-10-25T07:39:38.730Z,14.5
2022-10-25T07:41:36.381Z,14.6
2022-10-25T07:43:34.000Z,14.5
2022-10-25T07:45:31.603Z,14.7
2022-10-25T07:49:26.862Z,14.6
2022-10-25T07:51:24.510Z,14.5
2022-10-25T07:53:30.055Z,14.7
2022-10-25T07:55:27.731Z,14.7
2022-10-25T07:57:25.331Z,14.8
2022-10-25T07:59:22.972Z,14.7
2022-10-25T08:01:20.650Z,14.7
2022-10-25T08:03:18.458Z,14.9
2022-10-25T08:05:15.843Z,14.9
2022-10-25T08:07:21.379Z,14.9
2022-10-25T08:09:36.895Z,15
2022-10-25T08:11:16.633Z,14.9
2022-10-25T08:13:39.569Z,14.9
2022-10-25T08:15:37.187Z,15
2022-10-25T08:17:34.821Z,14.9
2022-10-25T08:19:40.367Z,15.1
2022-10-25T08:21:37.993Z,14.9
2022-10-25T08:23:35.601Z,15
2022-10-25T08:25:33.247Z,15.1
2022-10-25T08:27:30.865Z,15.1
2022-10-25T08:29:28.483Z,15.2
2022-10-25T08:31:26.110Z,15.2
2022-10-25T08:33:31.657Z,15.2
2022-10-25T08:35:29.124Z,15.3
2022-10-25T08:37:26.752Z,15.3
2022-10-25T08:39:24.371Z,15.3
2022-10-25T08:41:21.985Z,15.3
2022-10-25T08:43:19.625Z,15.4
2022-10-25T08:45:17.238Z,15.4
2022-10-25T08:47:22.820Z,15.3
2022-10-25T08:49:20.445Z,15.4
2022-10-25T08:51:18.053Z,15.4
2022-10-25T08:53:15.681Z,15.5
2022-10-25T08:55:13.327Z,15.4
2022-10-25T08:57:15.564Z,15.5
2022-10-25T08:59:08.576Z,15.3
2022-10-25T09:01:14.242Z,15.5
2022-10-25T09:03:14.591Z,15.6
2022-10-25T09:05:09.330Z,15.8
2022-10-25T09:06:12.108Z,15.9
2022-10-25T09:08:09.724Z,15.9
2022-10-25T09:12:04.950Z,16
2022-10-25T09:14:10.506Z,16
2022-10-25T09:16:08.096Z,16.1
2022-10-25T09:18:05.720Z,16.3
2022-10-25T09:20:03.407Z,16.2
2022-10-25T09:22:00.952Z,16.2
2022-10-25T09:24:00.208Z,16.2
2022-10-25T09:25:57.678Z,16.2
2022-10-25T09:28:03.272Z,16.2
2022-10-25T09:30:05.029Z,16.4
2022-10-25T09:31:58.469Z,16.3
2022-10-25T09:33:57.788Z,16.5
2022-10-25T09:35:53.948Z,16.4
2022-10-25T09:37:51.409Z,16.5
2022-10-25T09:39:49.022Z,16.4
2022-10-25T09:41:54.525Z,16.6
2022-10-25T09:43:52.151Z,16.5
2022-10-25T09:45:49.751Z,16.5
2022-10-25T09:47:47.471Z,16.5
2022-10-25T09:49:44.969Z,16.5
2022-10-25T09:51:42.593Z,16.4
2022-10-25T09:55:45.769Z,16.3
2022-10-25T09:57:43.394Z,16.2
2022-10-25T09:59:41.008Z,16.2
2022-10-25T10:00:43.775Z,16.4
2022-10-25T10:04:39.014Z,16.6
2022-10-25T10:08:42.173Z,16.6
2022-10-25T10:12:37.450Z,16.9
2022-10-25T10:14:35.035Z,16.8
2022-10-25T10:16:32.649Z,16.8
2022-10-25T10:20:27.875Z,16.8
2022-10-25T10:22:33.410Z,16.8
2022-10-25T10:24:31.019Z,16.8
2022-10-25T10:26:28.645Z,16.9
2022-10-25T10:28:26.249Z,17
2022-10-25T10:30:23.846Z,16.9
2022-10-25T10:36:24.607Z,17
2022-10-25T10:38:22.209Z,17.1
2022-10-25T10:40:19.806Z,17.1
2022-10-25T10:42:17.562Z,17.3
2022-10-25T10:44:15.026Z,17.4
2022-10-25T10:46:12.642Z,17.6
2022-10-25T10:48:10.250Z,17.7
2022-10-25T10:50:15.803Z,17.6
2022-10-25T10:52:13.470Z,17.7
2022-10-25T10:54:11.012Z,17.9
2022-10-25T10:55:13.781Z,18.1
2022-10-25T10:57:11.379Z,18
2022-10-25T10:59:09.014Z,18
2022-10-25T11:01:06.742Z,18.1
2022-10-25T11:07:07.293Z,18.3
2022-10-25T11:09:04.889Z,18.7
2022-10-25T11:11:02.477Z,18.9
2022-10-25T11:13:00.062Z,19.2
2022-10-25T11:14:57.671Z,19.7
2022-10-25T11:17:03.189Z,19.5
2022-10-25T11:19:00.770Z,19.4
2022-10-25T11:20:58.377Z,19.4
2022-10-25T11:22:57.099Z,19.6
2022-10-25T11:24:53.505Z,19.8
2022-10-25T11:28:48.679Z,19.9
2022-10-25T11:30:54.173Z,20.2
2022-10-25T11:34:49.329Z,20.7
2022-10-25T11:38:44.450Z,20.8
2022-10-25T11:42:39.535Z,21
2022-10-25T11:46:42.606Z,21.8
2022-10-25T11:48:40.149Z,21.5
2022-10-25T11:50:57.194Z,22
2022-10-25T11:54:52.251Z,22.2
2022-10-25T11:58:55.273Z,20.8
2022-10-25T12:00:52.798Z,20.7
2022-10-25T12:02:50.999Z,20
2022-10-25T12:04:47.854Z,20.5
2022-10-25T12:06:45.376Z,21.5
2022-10-25T12:08:42.931Z,21.7
2022-10-25T12:10:48.396Z,21.3
2022-10-25T12:12:46.314Z,20.9
2022-10-25T12:14:43.448Z,20
2022-10-25T12:16:40.992Z,19.5
2022-10-25T12:20:36.040Z,20.1
2022-10-25T12:22:33.564Z,21.1
2022-10-25T12:26:36.595Z,24
2022-10-25T12:28:34.117Z,24.5
2022-10-25T12:30:32.052Z,23.7
2022-10-25T12:32:29.150Z,24.3
2022-10-25T12:34:26.660Z,25
2022-10-25T12:36:24.163Z,24.9
2022-10-25T12:38:29.635Z,22.1
2022-10-25T12:40:27.177Z,21.7
2022-10-25T12:42:24.670Z,21
2022-10-25T12:45:24.881Z,20.2
2022-10-25T12:47:22.393Z,20
2022-10-25T12:49:19.921Z,20.9
2022-10-25T12:51:25.384Z,24.4
2022-10-25T12:53:22.893Z,25.2
2022-10-25T12:55:20.419Z,26.1
2022-10-25T12:57:17.921Z,26.2
2022-10-25T12:59:15.398Z,26.3
2022-10-25T13:01:12.953Z,25.8
2022-10-25T13:03:10.636Z,25
2022-10-25T13:05:15.836Z,21.7
2022-10-25T13:07:13.374Z,21.2
2022-10-25T13:09:10.830Z,22.8
2022-10-25T13:11:08.325Z,24.1
2022-10-25T13:15:03.286Z,23.7
2022-10-25T13:17:00.773Z,23.8
2022-10-25T13:19:06.248Z,21.6
2022-10-25T13:21:03.725Z,21.1
2022-10-25T13:23:01.207Z,21
2022-10-25T13:24:58.700Z,20.7
2022-10-25T13:26:56.211Z,20.5
2022-10-25T13:28:53.694Z,20.3
2022-10-25T13:30:51.214Z,20.3
2022-10-25T13:32:56.662Z,20
2022-10-25T13:34:54.207Z,20
2022-10-25T13:36:51.705Z,19.9
2022-10-25T13:41:49.475Z,19.9
2022-10-25T13:43:47.039Z,19.8
2022-10-25T13:45:52.509Z,19.8
2022-10-25T13:49:47.589Z,19.7
2022-10-25T13:51:45.145Z,19.6
2022-10-25T13:53:42.680Z,19.6
2022-10-25T13:55:40.222Z,19.6
2022-10-25T13:57:37.772Z,19.5
2022-10-25T13:59:43.293Z,19.3
2022-10-25T14:01:40.947Z,19.2
2022-10-25T14:03:38.383Z,19.3
2022-10-25T14:05:35.928Z,19.3
2022-10-25T14:09:31.066Z,19
2022-10-25T14:11:28.652Z,18.9
2022-10-25T14:13:34.151Z,18.7
2022-10-25T14:15:31.734Z,18.8
2022-10-25T14:17:29.292Z,18.8
2022-10-25T14:19:26.875Z,18.7
2022-10-25T14:21:24.454Z,18.9
2022-10-25T14:23:22.033Z,18.9
2022-10-25T14:25:19.624Z,19
2022-10-25T14:27:25.145Z,18.9
2022-10-25T14:29:22.714Z,18.8
2022-10-25T14:31:20.297Z,18.8
2022-10-25T14:34:20.637Z,18.6
2022-10-25T14:36:18.245Z,18.6
2022-10-25T14:38:15.795Z,18.6
2022-10-25T14:40:21.354Z,18.4
2022-10-25T14:42:18.936Z,18.4
2022-10-25T14:44:16.512Z,18.4
2022-10-25T14:48:11.676Z,18.4
2022-10-25T14:50:09.283Z,18.3
2022-10-25T14:52:06.866Z,18.2
2022-10-25T14:54:12.438Z,18.2
2022-10-25T14:56:09.987Z,18.2
2022-10-25T14:58:07.616Z,18.2
2022-10-25T15:02:02.879Z,18.3
2022-10-25T15:05:59.575Z,18.1
2022-10-25T15:08:05.046Z,18
2022-10-25T15:10:02.683Z,17.9
2022-10-25T15:12:00.142Z,17.8
2022-10-25T15:13:57.765Z,17.8
2022-10-25T15:15:55.357Z,17.9
2022-10-25T15:17:52.925Z,17.7
2022-10-25T15:19:50.571Z,17.8
2022-10-25T15:21:56.089Z,17.8
2022-10-25T15:23:53.714Z,17.7
2022-10-25T15:25:51.326Z,17.6
2022-10-25T15:28:18.199Z,17.6
2022-10-25T15:30:15.816Z,17.6
2022-10-25T15:32:13.436Z,17.6
2022-10-25T15:34:18.958Z,17.5
2022-10-25T15:36:16.544Z,17.5
2022-10-25T15:38:14.140Z,17.4
2022-10-25T15:42:11.623Z,17.3
2022-10-25T15:44:06.921Z,17.4
2022-10-25T15:46:04.550Z,17.2
2022-10-25T15:48:10.098Z,17.3
2022-10-25T15:50:07.698Z,17.2
2022-10-25T15:52:05.302Z,17.1
2022-10-25T15:54:02.938Z,17.1
2022-10-25T15:56:00.511Z,17.2
2022-10-25T15:57:58.133Z,17.1
2022-10-25T15:59:55.780Z,17.1
2022-10-25T16:02:01.351Z,16.9
2022-10-25T16:03:58.897Z,16.9
2022-10-25T16:05:56.505Z,17
2022-10-25T16:07:54.101Z,16.8
2022-10-25T16:09:51.702Z,16.8
2022-10-25T16:11:49.323Z,16.9
2022-10-25T16:13:46.935Z,16.7
2022-10-25T16:15:52.502Z,16.6
2022-10-25T16:17:50.107Z,16.6
2022-10-25T16:19:47.703Z,16.7
2022-10-25T16:20:50.492Z,16.5
2022-10-25T16:22:48.228Z,16.6
2022-10-25T16:24:45.673Z,16.7
2022-10-25T16:26:43.283Z,16.6
2022-10-25T16:28:48.842Z,16.5
2022-10-25T16:30:46.452Z,16.4
2022-10-25T16:32:44.062Z,16.4
2022-10-25T16:34:41.694Z,16.4
2022-10-25T16:36:39.300Z,16.4
2022-10-25T16:38:36.910Z,16.4
2022-10-25T16:40:34.562Z,16.3
2022-10-25T16:42:40.120Z,16.1
2022-10-25T16:44:37.714Z,16.1
2022-10-25T16:46:35.345Z,16.2
2022-10-25T16:48:32.949Z,16.2
2022-10-25T16:50:30.573Z,16.1
2022-10-25T16:52:28.202Z,16.1
2022-10-25T16:54:25.816Z,16.1
2022-10-25T16:56:31.375Z,16.1
2022-10-25T16:58:28.984Z,16
2022-10-25T17:00:26.610Z,16
2022-10-25T17:04:21.873Z,15.9
2022-10-25T17:06:39.639Z,15.9
2022-10-25T17:08:17.077Z,15.8
2022-10-25T17:10:22.620Z,15.9
2022-10-25T17:12:20.217Z,15.9
2022-10-25T17:14:17.851Z,15.8
2022-10-25T17:17:18.311Z,15.8
2022-10-25T17:19:15.863Z,15.8
2022-10-25T17:23:19.038Z,15.6
2022-10-25T17:25:16.674Z,15.7
2022-10-25T17:27:14.298Z,15.6
2022-10-25T17:29:11.917Z,15.6
2022-10-25T17:31:09.547Z,15.5
2022-10-25T17:33:07.179Z,15.5
2022-10-25T17:35:04.802Z,15.3
2022-10-25T17:37:10.350Z,15.3
2022-10-25T17:39:07.977Z,15.4
2022-10-25T17:41:05.628Z,15.2
2022-10-25T17:43:03.257Z,15.3
2022-10-25T17:45:00.858Z,15.2
2022-10-25T17:47:00.877Z,15.2
2022-10-25T17:48:56.123Z,15.1
2022-10-25T17:51:01.661Z,15.1
2022-10-25T17:52:59.261Z,15.1
2022-10-25T17:54:56.905Z,15
2022-10-25T17:56:54.539Z,15
2022-10-25T17:58:52.187Z,14.9
2022-10-25T18:00:49.898Z,14.9
2022-10-25T18:02:47.473Z,14.8
2022-10-25T18:05:02.184Z,14.8
2022-10-25T18:06:50.620Z,14.8
2022-10-25T18:08:48.263Z,14.7
2022-10-25T18:11:48.673Z,14.8
2022-10-25T18:13:46.302Z,14.6
2022-10-25T18:15:44.090Z,14.6
2022-10-25T18:17:49.907Z,14.6
2022-10-25T18:19:47.156Z,14.6
2022-10-25T18:21:44.760Z,14.6
2022-10-25T18:23:42.410Z,14.5
2022-10-25T18:25:40.190Z,14.5
2022-10-25T18:27:37.657Z,14.5
2022-10-25T18:29:35.277Z,14.6
2022-10-25T18:31:40.863Z,14.4
2022-10-25T18:33:38.461Z,14.4
2022-10-25T18:35:36.149Z,14.4
2022-10-25T18:41:28.970Z,14.3
2022-10-25T18:43:26.620Z,14.3
2022-10-25T18:45:32.163Z,14.2
2022-10-25T18:47:29.826Z,14.2
2022-10-25T18:49:27.470Z,14.1
2022-10-25T18:53:22.725Z,14.1
2022-10-25T18:55:20.359Z,14.1
2022-10-25T18:57:17.989Z,14.1
2022-10-25T18:59:23.536Z,14
2022-10-25T19:01:21.317Z,14
2022-10-25T19:03:18.817Z,14
2022-10-25T19:05:45.846Z,13.9
2022-10-25T19:07:43.341Z,13.8
2022-10-25T19:11:46.514Z,13.9
2022-10-25T19:13:47.448Z,13.8
2022-10-25T19:17:39.467Z,13.8
2022-10-25T19:19:37.118Z,13.7
2022-10-25T19:21:34.742Z,13.8
2022-10-25T19:25:37.917Z,13.6
2022-10-25T19:27:35.564Z,13.6
2022-10-25T19:29:33.185Z,13.5
2022-10-25T19:31:30.836Z,13.5
2022-10-25T19:33:28.481Z,13.5
2022-10-25T19:35:26.137Z,13.5
2022-10-25T19:37:23.783Z,13.6
2022-10-25T19:39:29.357Z,13.6
2022-10-25T19:41:26.984Z,13.5
2022-10-25T19:43:24.616Z,13.5
2022-10-25T19:45:22.247Z,13.5
2022-10-25T19:47:19.866Z,13.5
2022-10-25T19:49:17.514Z,13.5
2022-10-25T19:53:20.694Z,13.3
2022-10-25T19:55:18.334Z,13.5
2022-10-25T19:57:15.970Z,13.5
2022-10-25T19:58:18.762Z,13.5
2022-10-25T20:00:16.404Z,13.5
2022-10-25T20:04:11.658Z,13.4
2022-10-25T20:06:20.054Z,13.4
2022-10-25T20:08:14.841Z,13.5
2022-10-25T20:10:12.495Z,13.4
2022-10-25T20:12:10.195Z,13.3
2022-10-25T20:14:07.780Z,13.4
2022-10-25T20:18:03.055Z,13.2
2022-10-25T20:22:06.269Z,13.2
2022-10-25T20:24:03.940Z,13.2
2022-10-25T20:26:01.548Z,13.1
2022-10-25T20:27:59.212Z,13.1
2022-10-25T20:29:56.837Z,13.1
2022-10-25T20:31:54.489Z,13.1
2022-10-25T20:34:00.006Z,13
2022-10-25T20:35:57.661Z,13.1
2022-10-25T20:37:55.284Z,13.1
2022-10-25T20:39:52.939Z,13.1
2022-10-25T20:41:50.575Z,13
2022-10-25T20:43:48.207Z,13.1
2022-10-25T20:47:52.914Z,13
2022-10-25T20:49:50.544Z,12.9
2022-10-25T20:51:48.173Z,12.8
2022-10-25T20:54:48.650Z,12.9
2022-10-25T20:56:46.203Z,12.9
2022-10-25T20:58:43.839Z,12.7
2022-10-25T21:00:49.398Z,12.7
2022-10-25T21:02:47.047Z,12.8
2022-10-25T21:06:42.357Z,12.7
2022-10-25T21:08:39.953Z,12.6
2022-10-25T21:10:37.615Z,12.7
2022-10-25T21:12:35.234Z,12.5
2022-10-25T21:14:40.822Z,12.5
2022-10-25T21:16:38.424Z,12.5
2022-10-25T21:18:36.106Z,12.5
2022-10-25T21:20:33.716Z,12.6
2022-10-25T21:22:31.337Z,12.5
2022-10-25T21:24:29.078Z,12.7
2022-10-25T21:26:26.639Z,12.6
2022-10-25T21:28:32.175Z,12.5
2022-10-25T21:30:29.806Z,12.5
2022-10-25T21:32:27.446Z,12.5
2022-10-25T21:34:25.127Z,12.4
2022-10-25T21:36:22.730Z,12.5
2022-10-25T21:40:18.476Z,12.5
2022-10-25T21:44:21.665Z,12.5
2022-10-25T21:46:19.328Z,12.5
2022-10-25T21:47:22.105Z,12.4
2022-10-25T21:49:19.734Z,12.4
2022-10-25T21:51:17.359Z,12.4
2022-10-25T21:55:20.564Z,12.3
2022-10-25T21:57:18.199Z,12.3
2022-10-25T22:01:13.514Z,12.3
2022-10-25T22:03:11.079Z,12.3
2022-10-25T22:05:08.747Z,12.2
2022-10-25T22:07:06.375Z,12.3
2022-10-25T22:09:11.966Z,12.2
2022-10-25T22:11:09.599Z,12.2
2022-10-25T22:13:07.213Z,12.2
2022-10-25T22:15:04.883Z,12.2
2022-10-25T22:17:02.555Z,12.1
2022-10-25T22:19:00.177Z,12.1
2022-10-25T22:20:57.820Z,12.1
2022-10-25T22:23:03.370Z,12.2
2022-10-25T22:25:00.973Z,12.1
2022-10-25T22:26:58.602Z,12.1
2022-10-25T22:28:56.260Z,12.1
2022-10-25T22:30:53.888Z,12.1
2022-10-25T22:34:49.149Z,12.2
2022-10-25T22:36:54.697Z,12.1
2022-10-25T22:38:52.375Z,12.1
2022-10-25T22:40:50.654Z,12
2022-10-25T22:43:17.562Z,12
2022-10-25T22:45:15.191Z,12
2022-10-25T22:47:12.825Z,12
2022-10-25T22:49:18.410Z,11.9
2022-10-25T22:51:16.038Z,12
2022-10-25T22:53:13.686Z,11.9
2022-10-25T22:55:11.311Z,11.9
2022-10-25T22:57:08.945Z,11.8
2022-10-25T22:59:06.614Z,11.9
2022-10-25T23:03:09.841Z,11.7
2022-10-25T23:09:02.681Z,11.8
2022-10-25T23:12:57.978Z,11.8
2022-10-25T23:14:55.613Z,11.8
2022-10-25T23:17:01.180Z,11.7
2022-10-25T23:18:58.844Z,11.8
2022-10-25T23:20:56.449Z,11.7
2022-10-25T23:22:54.059Z,11.8
2022-10-25T23:24:51.688Z,11.8
2022-10-25T23:26:49.336Z,11.7
2022-10-25T23:28:46.966Z,11.7
2022-10-25T23:30:52.515Z,11.7
2022-10-25T23:32:50.165Z,11.6
2022-10-25T23:34:47.785Z,11.7
2022-10-25T23:35:50.561Z,11.6
2022-10-25T23:37:48.527Z,11.6
2022-10-25T23:39:45.856Z,11.6
2022-10-25T23:41:43.486Z,11.6
2022-10-25T23:43:49.016Z,11.4
2022-10-25T23:45:46.797Z,11.4
2022-10-25T23:47:44.265Z,11.4
2022-10-25T23:49:41.893Z,11.4
2022-10-25T23:51:39.545Z,11.4
2022-10-25T23:53:37.215Z,11.4
2022-10-25T23:55:34.817Z,11.5
2022-10-25T23:57:40.379Z,11.3
2022-10-25T23:59:38.003Z,11.4
